PHJH

Details ICAO PHJH (JHM)
Name KAPALUA
Region USA (Hawaii)
Timezone Pacific/Honolulu (UTC-10.0)
Plans Departing 23
Arriving 30
Stats Elevation 254 ft / 77 m (AMSL)
Location 20.962947° -156.673039°
Runways 1
Magnetic Variation 9.506° E
Sunrise 2018-05-26 15:47:11 UTC / 2018-05-26 05:47:11 Local
Sunset 2018-05-27 05:03:15 UTC / 2018-05-26 19:03:15 Local
Advertisement - Login to hide

Runways

ID Width Length Bearing (true) Bearing (mag) Surface Threshold Offset Overrun Length
02 100 ft / 30 m 3,048 ft / 929 m 27.87° 18.36° Asphalt 0 ft / 0 m 0 ft / 0 m
20 100 ft / 30 m 3,048 ft / 929 m 207.87° 198.36° Asphalt 0 ft / 0 m 0 ft / 0 m

Map

Weather


0- 5 10 15 20 25 30 35+ Temperature / ° C

Clouds and Precipitation
Forecast for 2018-05-27 12:00 UTC. Updated 42 minutes ago

Ground ~20,000 ft ~40,000 ft Winds

METAR

Not found

TAF

PHJH 262335Z 2700/2724 06014G20KT P6SM FEW035 SCT050 FM270500 06010KT P6SM FEW035 SCT050 AMD NOT SKED AFT 270400

Frequencies

Recorded 118.52 MHz AWOS
Unicom 122.70 MHz CTAF/UNICOM
Warning: Do not use this data for real-world aviation or navigation. No guarantee of current accuracy is given.